createdAt,value
2022-08-17T00:00:43.835Z,101173.91
2022-08-17T00:03:01.809Z,101165.50
2022-08-17T00:05:06.644Z,101163.06
2022-08-17T00:07:11.827Z,101167.63
2022-08-17T00:09:18.272Z,101168.69
2022-08-17T00:11:26.287Z,101164.41
2022-08-17T00:13:35.229Z,101159.22
2022-08-17T00:15:39.445Z,101162.63
2022-08-17T00:17:43.709Z,101160.28
2022-08-17T00:19:47.304Z,101167.41
2022-08-17T00:22:33.172Z,101156.88
2022-08-17T00:24:19.699Z,101163.38
2022-08-17T00:26:35.836Z,101170.41
2022-08-17T00:28:48.983Z,101167.75
2022-08-17T00:30:56.161Z,101155.28
2022-08-17T00:33:12.019Z,101157.00
2022-08-17T00:35:23.830Z,101154.53
2022-08-17T00:37:27.872Z,101149.13
2022-08-17T00:39:33.460Z,101154.63
2022-08-17T00:41:37.076Z,101154.84
2022-08-17T00:43:47.814Z,101155.19
2022-08-17T00:45:51.397Z,101157.84
2022-08-17T00:47:54.917Z,101163.06
2022-08-17T00:49:58.618Z,101154.03
2022-08-17T00:52:10.777Z,101150.38
2022-08-17T00:54:20.328Z,101147.72
2022-08-17T00:56:31.137Z,101158.28
2022-08-17T00:58:37.515Z,101146.53
2022-08-17T01:00:45.260Z,101152.63
2022-08-17T01:02:50.047Z,101148.16
2022-08-17T01:04:55.440Z,101152.63
2022-08-17T01:07:01.389Z,101153.56
2022-08-17T01:09:05.865Z,101160.81
2022-08-17T01:11:10.502Z,101152.84
2022-08-17T01:13:16.337Z,101151.03
2022-08-17T01:15:20.205Z,101155.28
2022-08-17T01:17:23.831Z,101155.28
2022-08-17T01:19:31.674Z,101149.97
2022-08-17T01:21:43.195Z,101151.78
2022-08-17T01:23:48.305Z,101150.19
2022-08-17T01:25:54.561Z,101153.78
2022-08-17T01:27:58.221Z,101157.19
2022-08-17T01:30:57.948Z,101156.13
2022-08-17T01:32:31.822Z,101149.75
2022-08-17T01:34:43.448Z,101156.78
2022-08-17T01:36:50.073Z,101151.56
2022-08-17T01:38:54.955Z,101151.69
2022-08-17T01:41:01.770Z,101155.28
2022-08-17T01:43:09.715Z,101150.69
2022-08-17T01:45:16.842Z,101157.00
2022-08-17T01:47:20.060Z,101155.19
2022-08-17T01:49:23.341Z,101157.00
2022-08-17T01:51:27.787Z,101158.91
2022-08-17T01:53:36.301Z,101162.50
2022-08-17T01:55:46.539Z,101162.94
2022-08-17T01:57:49.891Z,101162.94
2022-08-17T01:59:53.127Z,101163.34
2022-08-17T02:01:56.400Z,101156.34
2022-08-17T02:04:01.557Z,101167.09
2022-08-17T02:06:27.297Z,101169.84
2022-08-17T02:08:38.794Z,101167.94
2022-08-17T02:10:58.653Z,101165.28
2022-08-17T02:13:05.939Z,101165.28
2022-08-17T02:15:12.524Z,101162.72
2022-08-17T02:17:15.740Z,101167.19
2022-08-17T02:19:19.420Z,101156.53
2022-08-17T02:21:22.662Z,101161.97
2022-08-17T02:23:29.741Z,101162.91
2022-08-17T02:25:34.836Z,101163.78
2022-08-17T02:27:40.181Z,101173.56
2022-08-17T02:29:43.431Z,101170.91
2022-08-17T02:31:46.909Z,101168.16
2022-08-17T02:33:56.645Z,101170.72
2022-08-17T02:36:09.596Z,101176.03
2022-08-17T02:38:12.829Z,101167.19
2022-08-17T02:40:16.324Z,101167.19
2022-08-17T02:42:41.916Z,101172.31
2022-08-17T02:44:45.340Z,101167.94
2022-08-17T02:46:48.713Z,101170.59
2022-08-17T02:48:52.042Z,101159.00
2022-08-17T02:50:55.701Z,101170.38
2022-08-17T02:53:02.502Z,101164.34
2022-08-17T02:55:08.031Z,101158.25
2022-08-17T02:57:12.144Z,101163.56
2022-08-17T02:59:16.797Z,101166.13
2022-08-17T03:01:20.446Z,101161.78
2022-08-17T03:03:23.857Z,101159.97
2022-08-17T03:05:28.718Z,101160.69
2022-08-17T03:07:32.042Z,101157.97
2022-08-17T03:09:35.590Z,101155.91
2022-08-17T03:11:38.861Z,101156.78
2022-08-17T03:13:42.131Z,101154.97
2022-08-17T03:15:48.665Z,101162.84
2022-08-17T03:17:52.528Z,101159.34
2022-08-17T03:19:55.792Z,101160.19
2022-08-17T03:21:59.401Z,101155.69
2022-08-17T03:24:28.589Z,101154.03
2022-08-17T03:26:32.117Z,101150.38
2022-08-17T03:28:35.504Z,101159.22
2022-08-17T03:30:40.065Z,101155.69
2022-08-17T03:32:47.194Z,101157.41
2022-08-17T03:34:50.523Z,101161.78
2022-08-17T03:36:53.735Z,101146.75
2022-08-17T03:38:57.160Z,101157.41
2022-08-17T03:41:00.425Z,101147.72
2022-08-17T03:43:09.168Z,101154.75
2022-08-17T03:45:15.671Z,101155.69
2022-08-17T03:47:36.692Z,101158.28
2022-08-17T03:49:58.758Z,101156.34
2022-08-17T03:52:19.397Z,101154.44
2022-08-17T03:54:40.071Z,101151.78
2022-08-17T03:56:44.715Z,101153.56
2022-08-17T03:58:48.453Z,101158.91
2022-08-17T04:00:52.595Z,101151.88
2022-08-17T04:02:56.065Z,101154.53
2022-08-17T04:05:01.560Z,101153.56
2022-08-17T04:07:05.268Z,101166.16
2022-08-17T04:09:09.054Z,101163.38
2022-08-17T04:11:12.423Z,101164.22
2022-08-17T04:13:15.871Z,101166.75
2022-08-17T04:15:29.073Z,101170.28
2022-08-17T04:17:32.370Z,101164.97
2022-08-17T04:19:35.859Z,101171.97
2022-08-17T04:21:40.556Z,101168.38
2022-08-17T04:23:43.817Z,101171.13
2022-08-17T04:25:50.133Z,101171.13
2022-08-17T04:27:53.546Z,101171.25
2022-08-17T04:29:56.732Z,101176.78
2022-08-17T04:32:00.090Z,101171.56
2022-08-17T04:34:03.335Z,101169.88
2022-08-17T04:36:09.288Z,101164.75
2022-08-17T04:38:16.567Z,101171.88
2022-08-17T04:40:39.146Z,101165.72
2022-08-17T04:42:42.324Z,101170.16
2022-08-17T04:44:45.590Z,101171.88
2022-08-17T04:46:51.053Z,101172.75
2022-08-17T04:48:56.992Z,101175.47
2022-08-17T04:51:00.525Z,101175.47
2022-08-17T04:53:03.851Z,101176.56
2022-08-17T04:55:09.827Z,101175.69
2022-08-17T04:57:13.110Z,101181.97
2022-08-17T04:59:18.770Z,101183.91
2022-08-17T05:01:24.545Z,101179.53
2022-08-17T05:03:28.113Z,101184.00
2022-08-17T05:05:34.437Z,101185.78
2022-08-17T05:07:37.722Z,101190.38
2022-08-17T05:09:41.020Z,101196.97
2022-08-17T05:11:46.192Z,101204.06
2022-08-17T05:13:50.850Z,101198.66
2022-08-17T05:15:57.310Z,101200.38
2022-08-17T05:18:01.283Z,101203.97
2022-08-17T05:20:05.336Z,101212.06
2022-08-17T05:22:08.746Z,101212.06
2022-08-17T05:24:38.243Z,101212.81
2022-08-17T05:26:36.466Z,101204.94
2022-08-17T05:28:41.265Z,101210.28
2022-08-17T05:30:48.635Z,101213.09
2022-08-17T05:32:55.170Z,101209.59
2022-08-17T05:35:00.710Z,101218.63
2022-08-17T05:37:04.307Z,101216.94
2022-08-17T05:39:07.667Z,101221.63
2022-08-17T05:41:11.310Z,101217.25
2022-08-17T05:43:16.394Z,101226.06
2022-08-17T05:45:39.877Z,101229.69
2022-08-17T05:47:47.926Z,101228.09
2022-08-17T05:49:51.239Z,101227.16
2022-08-17T05:52:21.793Z,101231.69
2022-08-17T05:54:34.317Z,101234.25
2022-08-17T05:57:01.211Z,101230.75
2022-08-17T05:59:12.544Z,101233.53
2022-08-17T06:01:31.757Z,101233.53
2022-08-17T06:03:43.287Z,101243.28
2022-08-17T06:06:01.588Z,101245.94
2022-08-17T06:08:13.681Z,101246.81
2022-08-17T06:10:25.239Z,101241.50
2022-08-17T06:12:41.237Z,101241.38
2022-08-17T06:15:02.179Z,101236.81
2022-08-17T06:17:11.855Z,101241.19
2022-08-17T06:19:20.094Z,101253.31
2022-08-17T06:21:30.418Z,101248.75
2022-08-17T06:23:38.601Z,101254.81
2022-08-17T06:25:49.359Z,101253.88
2022-08-17T06:27:59.130Z,101256.53
2022-08-17T06:30:09.303Z,101255.66
2022-08-17T06:32:15.085Z,101263.56
2022-08-17T06:34:21.810Z,101262.69
2022-08-17T06:36:48.830Z,101266.28
2022-08-17T06:39:00.670Z,101260.91
2022-08-17T06:41:16.776Z,101269.59
2022-08-17T06:43:33.334Z,101265.06
2022-08-17T06:45:39.148Z,101264.19
2022-08-17T06:47:50.433Z,101266.75
2022-08-17T06:50:01.256Z,101269.50
2022-08-17T06:52:37.150Z,101262.28
2022-08-17T06:54:48.500Z,101269.41
2022-08-17T06:57:00.932Z,101272.06
2022-08-17T06:59:07.639Z,101269.22
2022-08-17T07:01:16.575Z,101266.63
2022-08-17T07:03:38.030Z,101271.00
2022-08-17T07:05:45.850Z,101272.81
2022-08-17T07:08:05.010Z,101271.88
2022-08-17T07:10:11.141Z,101269.94
2022-08-17T07:12:20.062Z,101271.56
2022-08-17T07:14:36.770Z,101268.78
2022-08-17T07:16:46.798Z,101269.56
2022-08-17T07:18:56.038Z,101273.06
2022-08-17T07:21:11.935Z,101283.81
2022-08-17T07:23:24.985Z,101280.19
2022-08-17T07:25:30.593Z,101281.88
2022-08-17T07:27:39.701Z,101280.09
2022-08-17T07:29:49.552Z,101283.59
2022-08-17T07:31:52.891Z,101280.09
2022-08-17T07:34:14.559Z,101279.22
2022-08-17T07:36:30.066Z,101269.44
2022-08-17T07:38:35.975Z,101270.06
2022-08-17T07:40:42.810Z,101266.47
2022-08-17T07:43:03.269Z,101273.38
2022-08-17T07:45:30.323Z,101278.50
2022-08-17T07:47:51.218Z,101265.97
2022-08-17T07:49:56.025Z,101263.91
2022-08-17T07:52:23.912Z,101259.16
2022-08-17T07:54:31.331Z,101264.34
2022-08-17T07:56:39.386Z,101262.34
2022-08-17T07:58:43.313Z,101271.72
2022-08-17T08:00:47.411Z,101273.22
2022-08-17T08:03:03.668Z,101280.03
2022-08-17T08:05:14.538Z,101270.25
2022-08-17T08:07:39.645Z,101271.00
2022-08-17T08:09:45.558Z,101273.66
2022-08-17T08:11:48.957Z,101278.03
2022-08-17T08:13:52.241Z,101266.44
2022-08-17T08:15:57.757Z,101271.63
2022-08-17T08:18:03.389Z,101269.59
2022-08-17T08:20:52.231Z,101265.03
2022-08-17T08:22:47.731Z,101267.69
2022-08-17T08:25:05.435Z,101270.34
2022-08-17T08:27:21.158Z,101269.41
2022-08-17T08:29:33.168Z,101273.75
2022-08-17T08:31:56.362Z,101268.34
2022-08-17T08:34:53.207Z,101266.53
2022-08-17T08:37:02.091Z,101274.50
2022-08-17T08:39:21.818Z,101268.97
2022-08-17T08:41:39.622Z,101269.72
2022-08-17T08:43:53.165Z,101275.56
2022-08-17T08:46:04.551Z,101267.25
2022-08-17T08:48:53.465Z,101252.59
2022-08-17T08:50:55.963Z,101254.84
2022-08-17T08:53:19.183Z,101257.03
2022-08-17T08:55:32.524Z,101265.34
2022-08-17T08:57:39.664Z,101265.03
2022-08-17T08:59:58.261Z,101266.50
2022-08-17T09:02:16.225Z,101262.66
2022-08-17T09:04:55.884Z,101264.97
2022-08-17T09:07:12.998Z,101264.63
2022-08-17T09:09:29.796Z,101257.41
2022-08-17T09:12:01.837Z,101267.81
2022-08-17T09:14:21.343Z,101277.06
2022-08-17T09:16:30.716Z,101275.81
2022-08-17T09:19:00.639Z,101266.69
2022-08-17T09:21:03.272Z,101266.50
2022-08-17T09:23:10.445Z,101274.25
2022-08-17T09:25:18.556Z,101266.03
2022-08-17T09:27:26.970Z,101272.13
2022-08-17T09:29:35.288Z,101279.03
2022-08-17T09:31:49.411Z,101281.38
2022-08-17T09:33:53.944Z,101277.50
2022-08-17T09:36:01.327Z,101279.94
2022-08-17T09:38:14.603Z,101284.94
2022-08-17T09:40:22.235Z,101278.75
2022-08-17T09:42:29.968Z,101284.72
2022-08-17T09:44:41.212Z,101286.19
2022-08-17T09:46:52.014Z,101286.81
2022-08-17T09:49:04.517Z,101288.28
2022-08-17T09:51:14.949Z,101299.56
2022-08-17T09:53:18.344Z,101299.25
2022-08-17T09:55:27.658Z,101303.41
2022-08-17T09:57:49.455Z,101299.53
2022-08-17T10:00:10.295Z,101305.47
2022-08-17T10:02:44.062Z,101301.84
2022-08-17T10:04:57.804Z,101302.25
2022-08-17T10:07:12.869Z,101302.63
2022-08-17T10:09:23.302Z,101302.28
2022-08-17T10:11:48.410Z,101303.63
2022-08-17T10:13:59.470Z,101305.47
2022-08-17T10:16:14.025Z,101302.84
2022-08-17T10:18:31.963Z,101311.31
2022-08-17T10:20:48.032Z,101309.16
2022-08-17T10:23:13.455Z,101306.47
2022-08-17T10:25:54.112Z,101301.88
2022-08-17T10:28:03.315Z,101303.47
2022-08-17T10:30:09.692Z,101304.06
2022-08-17T10:32:20.639Z,101309.91
2022-08-17T10:34:44.007Z,101303.22
2022-08-17T10:36:55.950Z,101303.47
2022-08-17T10:39:09.147Z,101304.81
2022-08-17T10:41:25.351Z,101310.28
2022-08-17T10:44:28.554Z,101312.44
2022-08-17T10:46:30.958Z,101312.81
2022-08-17T10:48:37.387Z,101304.06
2022-08-17T10:50:59.096Z,101317.09
2022-08-17T10:53:02.462Z,101316.72
2022-08-17T10:55:14.550Z,101307.47
2022-08-17T10:57:38.776Z,101310.63
2022-08-17T10:59:55.490Z,101296.19
2022-08-17T11:02:15.520Z,101299.81
2022-08-17T11:04:38.478Z,101296.31
2022-08-17T11:06:53.098Z,101291.94
2022-08-17T11:09:15.803Z,101297.91
2022-08-17T11:11:48.057Z,101307.13
2022-08-17T11:14:06.721Z,101301.06
2022-08-17T11:16:34.679Z,101316.72
2022-08-17T11:18:55.600Z,101311.38
2022-08-17T11:21:22.333Z,101306.28
2022-08-17T11:23:50.551Z,101309.44
2022-08-17T11:25:56.351Z,101303.59
2022-08-17T11:28:09.010Z,101305.53
2022-08-17T11:30:16.443Z,101303.00
2022-08-17T11:32:38.060Z,101297.38
2022-08-17T11:34:50.933Z,101302.41
2022-08-17T11:37:11.818Z,101304.72
2022-08-17T11:39:31.845Z,101310.53
2022-08-17T11:41:48.997Z,101296.53
2022-08-17T11:44:10.666Z,101315.47
2022-08-17T11:46:25.969Z,101309.16
2022-08-17T11:48:54.910Z,101315.56
2022-08-17T11:51:41.681Z,101311.53
2022-08-17T11:54:32.684Z,101316.63
2022-08-17T11:56:35.069Z,101314.09
2022-08-17T11:58:42.262Z,101321.75
2022-08-17T12:00:52.976Z,101317.09
2022-08-17T12:03:23.729Z,101317.59
2022-08-17T12:05:35.452Z,101314.84
2022-08-17T12:07:43.545Z,101314.59
2022-08-17T12:09:53.761Z,101319.19
2022-08-17T12:12:13.207Z,101318.69
2022-08-17T12:14:39.917Z,101321.56
2022-08-17T12:16:46.291Z,101313.78
2022-08-17T12:18:52.424Z,101310.56
2022-08-17T12:21:17.941Z,101313.22
2022-08-17T12:23:31.330Z,101311.28
2022-08-17T12:25:40.833Z,101308.59
2022-08-17T12:28:04.883Z,101301.69
2022-08-17T12:30:14.942Z,101306.06
2022-08-17T12:32:21.287Z,101299.41
2022-08-17T12:34:27.913Z,101291.91
2022-08-17T12:36:35.141Z,101283.56
2022-08-17T12:38:39.828Z,101286.78
2022-08-17T12:40:55.223Z,101281.63
2022-08-17T12:43:05.313Z,101288.69
2022-08-17T12:45:23.559Z,101277.50
2022-08-17T12:47:30.567Z,101275.06
2022-08-17T12:49:37.081Z,101283.34
2022-08-17T12:51:46.794Z,101275.50
2022-08-17T12:53:55.467Z,101271.31
2022-08-17T12:56:00.959Z,101271.75
2022-08-17T12:58:05.156Z,101276.72
2022-08-17T13:00:16.643Z,101270.94
2022-08-17T13:02:29.704Z,101269.13
2022-08-17T13:04:33.513Z,101264.94
2022-08-17T13:06:37.959Z,101274.38
2022-08-17T13:08:44.999Z,101272.00
2022-08-17T13:10:57.063Z,101266.97
2022-08-17T13:13:05.066Z,101269.19
2022-08-17T13:15:10.457Z,101261.22
2022-08-17T13:17:14.442Z,101256.16
2022-08-17T13:19:29.778Z,101252.09
2022-08-17T13:21:49.238Z,101255.38
2022-08-17T13:23:59.780Z,101245.22
2022-08-17T13:26:07.804Z,101253.53
2022-08-17T13:28:35.475Z,101247.38
2022-08-17T13:30:40.017Z,101238.44
2022-08-17T13:32:46.675Z,101240.19
2022-08-17T13:35:12.900Z,101231.72
2022-08-17T13:37:30.429Z,101238.38
2022-08-17T13:39:43.420Z,101233.00
2022-08-17T13:41:48.419Z,101234.03
2022-08-17T13:43:52.233Z,101229.94
2022-08-17T13:46:10.062Z,101237.53
2022-08-17T13:48:23.810Z,101241.91
2022-08-17T13:50:27.579Z,101241.03
2022-08-17T13:52:39.217Z,101242.22
2022-08-17T13:54:44.222Z,101244.19
2022-08-17T13:57:02.778Z,101246.34
2022-08-17T13:59:09.408Z,101245.91
2022-08-17T14:01:34.627Z,101243.50
2022-08-17T14:03:38.341Z,101250.97
2022-08-17T14:05:46.222Z,101250.13
2022-08-17T14:07:55.427Z,101242.69
2022-08-17T14:10:02.908Z,101248.75
2022-08-17T14:12:10.913Z,101246.50
2022-08-17T14:14:14.879Z,101237.44
2022-08-17T14:16:19.114Z,101237.41
2022-08-17T14:18:35.716Z,101243.88
2022-08-17T14:20:46.840Z,101235.72
2022-08-17T14:22:53.436Z,101240.50
2022-08-17T14:24:57.445Z,101232.59
2022-08-17T14:27:04.237Z,101232.88
2022-08-17T14:29:15.372Z,101230.22
2022-08-17T14:31:20.872Z,101230.38
2022-08-17T14:33:25.042Z,101233.22
2022-08-17T14:35:29.768Z,101231.84
2022-08-17T14:37:34.621Z,101232.28
2022-08-17T14:39:38.434Z,101222.13
2022-08-17T14:41:42.933Z,101227.34
2022-08-17T14:43:48.064Z,101227.09
2022-08-17T14:45:52.105Z,101220.59
2022-08-17T14:47:56.574Z,101225.66
2022-08-17T14:50:02.281Z,101220.00
2022-08-17T14:52:06.103Z,101216.75
2022-08-17T14:54:10.125Z,101219.72
2022-08-17T14:56:14.037Z,101213.53
2022-08-17T14:58:18.360Z,101212.53
2022-08-17T15:00:23.745Z,101204.34
2022-08-17T15:02:29.507Z,101208.44
2022-08-17T15:04:34.141Z,101202.09
2022-08-17T15:06:37.703Z,101202.34
2022-08-17T15:08:41.373Z,101204.91
2022-08-17T15:10:46.148Z,101192.34
2022-08-17T15:12:49.774Z,101191.38
2022-08-17T15:14:53.495Z,101190.66
2022-08-17T15:16:58.660Z,101189.22
2022-08-17T15:19:02.567Z,101197.13
2022-08-17T15:21:06.826Z,101190.88
2022-08-17T15:23:14.243Z,101187.19
2022-08-17T15:25:19.238Z,101188.31
2022-08-17T15:27:31.488Z,101177.88
2022-08-17T15:29:36.967Z,101182.09
2022-08-17T15:31:40.788Z,101189.44
2022-08-17T15:33:45.976Z,101195.34
2022-08-17T15:35:52.228Z,101190.81
2022-08-17T15:37:56.085Z,101186.88
2022-08-17T15:40:00.847Z,101180.09
2022-08-17T15:42:05.186Z,101183.06
2022-08-17T15:44:08.996Z,101176.94
2022-08-17T15:46:15.344Z,101170.16
2022-08-17T15:48:20.673Z,101178.31
2022-08-17T15:50:25.692Z,101180.69
2022-08-17T15:52:31.039Z,101181.03
2022-08-17T15:54:34.763Z,101176.97
2022-08-17T15:56:41.779Z,101176.53
2022-08-17T15:58:47.678Z,101178.88
2022-08-17T16:01:16.945Z,101178.16
2022-08-17T16:03:58.047Z,101189.53
2022-08-17T16:05:41.603Z,101181.03
2022-08-17T16:07:45.972Z,101185.81
2022-08-17T16:09:50.639Z,101186.13
2022-08-17T16:11:55.680Z,101173.06
2022-08-17T16:13:59.766Z,101178.72
2022-08-17T16:16:04.536Z,101167.66
2022-08-17T16:18:07.899Z,101169.19
2022-08-17T16:20:20.495Z,101163.13
2022-08-17T16:22:33.997Z,101160.03
2022-08-17T16:24:44.612Z,101160.25
2022-08-17T16:26:50.509Z,101157.56
2022-08-17T16:28:54.513Z,101155.78
2022-08-17T16:30:58.692Z,101148.00
2022-08-17T16:33:03.363Z,101158.22
2022-08-17T16:35:09.249Z,101166.00
2022-08-17T16:37:13.789Z,101169.44
2022-08-17T16:39:18.823Z,101161.59
2022-08-17T16:41:36.322Z,101158.78
2022-08-17T16:43:39.804Z,101158.94
2022-08-17T16:45:44.867Z,101160.31
2022-08-17T16:47:51.319Z,101166.09
2022-08-17T16:49:55.288Z,101158.56
2022-08-17T16:52:01.771Z,101159.44
2022-08-17T16:54:06.155Z,101161.38
2022-08-17T16:56:11.161Z,101146.16
2022-08-17T16:58:15.261Z,101154.31
2022-08-17T17:00:21.214Z,101142.78
2022-08-17T17:02:31.517Z,101140.50
2022-08-17T17:04:38.107Z,101145.13
2022-08-17T17:06:50.942Z,101143.44
2022-08-17T17:09:00.486Z,101140.19
2022-08-17T17:11:11.471Z,101138.75
2022-08-17T17:13:22.537Z,101139.84
2022-08-17T17:15:32.992Z,101137.56
2022-08-17T17:17:38.133Z,101143.19
2022-08-17T17:19:49.249Z,101140.78
2022-08-17T17:21:57.557Z,101137.38
2022-08-17T17:24:08.830Z,101130.44
2022-08-17T17:26:27.419Z,101134.97
2022-08-17T17:28:44.505Z,101142.72
2022-08-17T17:30:56.883Z,101140.03
2022-08-17T17:33:05.359Z,101135.69
2022-08-17T17:35:16.163Z,101138.47
2022-08-17T17:37:25.913Z,101141.16
2022-08-17T17:39:43.551Z,101141.16
2022-08-17T17:41:50.820Z,101143.25
2022-08-17T17:44:04.209Z,101138.88
2022-08-17T17:46:28.313Z,101141.41
2022-08-17T17:48:32.669Z,101136.66
2022-08-17T17:50:45.545Z,101138.59
2022-08-17T17:52:57.851Z,101136.06
2022-08-17T17:55:13.561Z,101143.63
2022-08-17T17:57:24.866Z,101148.53
2022-08-17T17:59:44.018Z,101142.47
2022-08-17T18:01:55.830Z,101141.84
2022-08-17T18:04:21.650Z,101139.31
2022-08-17T18:06:36.181Z,101150.00
2022-08-17T18:08:53.497Z,101146.63
2022-08-17T18:11:06.518Z,101144.09
2022-08-17T18:13:19.670Z,101148.56
2022-08-17T18:15:31.598Z,101148.97
2022-08-17T18:17:36.426Z,101150.19
2022-08-17T18:19:40.171Z,101146.78
2022-08-17T18:21:47.157Z,101150.47
2022-08-17T18:23:55.870Z,101149.03
2022-08-17T18:26:01.550Z,101153.16
2022-08-17T18:28:05.316Z,101152.59
2022-08-17T18:30:30.179Z,101155.44
2022-08-17T18:32:37.358Z,101155.72
2022-08-17T18:34:47.682Z,101155.84
2022-08-17T18:36:52.096Z,101159.75
2022-08-17T18:39:12.228Z,101166.31
2022-08-17T18:41:24.040Z,101157.94
2022-08-17T18:43:43.757Z,101152.03
2022-08-17T18:45:58.124Z,101156.00
2022-08-17T18:48:01.719Z,101152.91
2022-08-17T18:50:22.682Z,101150.22
2022-08-17T18:52:29.811Z,101153.72
2022-08-17T18:54:34.543Z,101157.50
2022-08-17T18:56:41.749Z,101152.41
2022-08-17T18:58:53.349Z,101158.84
2022-08-17T19:00:59.459Z,101150.09
2022-08-17T19:03:06.975Z,101140.28
2022-08-17T19:05:32.484Z,101137.72
2022-08-17T19:07:39.313Z,101148.63
2022-08-17T19:09:48.408Z,101148.63
2022-08-17T19:11:52.238Z,101148.53
2022-08-17T19:14:01.099Z,101156.56
2022-08-17T19:16:15.057Z,101152.06
2022-08-17T19:18:23.121Z,101148.28
2022-08-17T19:20:32.184Z,101148.16
2022-08-17T19:22:45.672Z,101144.66
2022-08-17T19:24:56.138Z,101149.25
2022-08-17T19:27:15.267Z,101152.06
2022-08-17T19:29:27.993Z,101158.34
2022-08-17T19:31:33.124Z,101155.94
2022-08-17T19:33:37.691Z,101148.63
2022-08-17T19:35:50.674Z,101140.75
2022-08-17T19:38:04.149Z,101143.53
2022-08-17T19:40:41.868Z,101142.09
2022-08-17T19:42:52.987Z,101136.63
2022-08-17T19:45:04.007Z,101137.50
2022-08-17T19:47:43.131Z,101139.44
2022-08-17T19:49:55.875Z,101138.47
2022-08-17T19:52:07.310Z,101140.03
2022-08-17T19:54:15.231Z,101139.06
2022-08-17T19:56:27.458Z,101138.22
2022-08-17T19:58:46.574Z,101132.88
2022-08-17T20:00:52.846Z,101130.44
2022-08-17T20:03:09.431Z,101132.38
2022-08-17T20:05:20.421Z,101129.72
2022-08-17T20:07:29.838Z,101118.19
2022-08-17T20:09:38.199Z,101119.03
2022-08-17T20:11:47.068Z,101120.72
2022-08-17T20:14:00.243Z,101122.44
2022-08-17T20:16:04.399Z,101124.97
2022-08-17T20:18:17.094Z,101129.22
2022-08-17T20:20:29.860Z,101132.50
2022-08-17T20:22:52.052Z,101138.56
2022-08-17T20:25:06.496Z,101132.38
2022-08-17T20:27:16.454Z,101139.19
2022-08-17T20:29:40.414Z,101146.09
2022-08-17T20:31:47.566Z,101138.66
2022-08-17T20:33:52.856Z,101142.91
2022-08-17T20:36:19.974Z,101140.97
2022-08-17T20:38:42.947Z,101140.13
2022-08-17T20:41:11.123Z,101131.25
2022-08-17T20:43:52.022Z,101130.38
2022-08-17T20:46:31.451Z,101126.88
2022-08-17T20:48:39.812Z,101123.13
2022-08-17T20:50:59.085Z,101125.78
2022-08-17T20:53:06.195Z,101121.28
2022-08-17T20:55:10.925Z,101125.53
2022-08-17T20:57:49.259Z,101119.22
2022-08-17T21:00:13.915Z,101116.53
2022-08-17T21:02:22.549Z,101113.75
2022-08-17T21:04:48.733Z,101117.28
2022-08-17T21:07:21.763Z,101113.47
2022-08-17T21:09:31.715Z,101109.97
2022-08-17T21:12:04.660Z,101103.66
2022-08-17T21:14:22.434Z,101106.34
2022-08-17T21:16:37.236Z,101101.81
2022-08-17T21:18:51.892Z,101105.38
2022-08-17T21:21:14.073Z,101108.03
2022-08-17T21:23:35.056Z,101103.53
2022-08-17T21:25:58.379Z,101094.91
2022-08-17T21:28:20.489Z,101100.38
2022-08-17T21:30:47.691Z,101101.47
2022-08-17T21:33:20.186Z,101107.81
2022-08-17T21:35:47.419Z,101109.75
2022-08-17T21:37:54.338Z,101106.34
2022-08-17T21:40:01.651Z,101104.81
2022-08-17T21:42:09.401Z,101106.03
2022-08-17T21:44:21.819Z,101106.25
2022-08-17T21:46:29.299Z,101115.34
2022-08-17T21:48:41.497Z,101112.81
2022-08-17T21:50:57.459Z,101109.56
2022-08-17T21:53:02.524Z,101110.53
2022-08-17T21:55:07.362Z,101108.13
2022-08-17T21:57:18.861Z,101106.91
2022-08-17T21:59:27.585Z,101108.13
2022-08-17T22:01:34.887Z,101104.84
2022-08-17T22:03:38.901Z,101107.66
2022-08-17T22:05:42.447Z,101099.75
2022-08-17T22:07:48.676Z,101100.88
2022-08-17T22:09:52.241Z,101107.16
2022-08-17T22:12:00.482Z,101108.13
2022-08-17T22:14:18.246Z,101099.41
2022-08-17T22:16:28.400Z,101091.50
2022-08-17T22:18:33.849Z,101081.69
2022-08-17T22:20:37.547Z,101072.94
2022-08-17T22:23:20.550Z,101073.06
2022-08-17T22:25:26.015Z,101069.56
2022-08-17T22:27:51.651Z,101065.94
2022-08-17T22:29:59.222Z,101068.59
2022-08-17T22:32:02.787Z,101073.81
2022-08-17T22:34:14.123Z,101078.06
2022-08-17T22:36:29.147Z,101074.25
2022-08-17T22:38:34.197Z,101070.50
2022-08-17T22:40:37.785Z,101067.59
2022-08-17T22:42:48.281Z,101068.31
2022-08-17T22:44:54.004Z,101077.06
2022-08-17T22:47:06.930Z,101079.59
2022-08-17T22:49:23.763Z,101081.19
2022-08-17T22:51:31.432Z,101072.19
2022-08-17T22:53:53.613Z,101067.56
2022-08-17T22:56:15.496Z,101066.59
2022-08-17T22:58:38.744Z,101066.47
2022-08-17T23:00:45.025Z,101068.19
2022-08-17T23:03:11.162Z,101068.06
2022-08-17T23:05:23.036Z,101060.03
2022-08-17T23:07:26.599Z,101049.34
2022-08-17T23:09:30.653Z,101051.28
2022-08-17T23:11:48.740Z,101053.00
2022-08-17T23:13:55.102Z,101058.34
2022-08-17T23:15:58.648Z,101059.91
2022-08-17T23:18:04.894Z,101056.97
2022-08-17T23:20:12.245Z,101044.47
2022-08-17T23:22:16.030Z,101039.13
2022-08-17T23:24:23.912Z,101037.31
2022-08-17T23:26:30.273Z,101031.00
2022-08-17T23:28:37.196Z,101039.88
2022-08-17T23:30:43.645Z,101039.88
2022-08-17T23:32:53.303Z,101044.47
2022-08-17T23:34:59.371Z,101040.13
2022-08-17T23:37:04.432Z,101041.09
2022-08-17T23:39:09.002Z,101044.72
2022-08-17T23:41:15.724Z,101042.31
2022-08-17T23:43:25.496Z,101032.59
2022-08-17T23:45:31.955Z,101029.09
2022-08-17T23:47:35.772Z,101035.41
2022-08-17T23:49:41.662Z,101031.88
2022-08-17T23:51:48.390Z,101030.06
2022-08-17T23:53:56.261Z,101021.22
2022-08-17T23:56:09.381Z,101024.72
2022-08-17T23:58:14.158Z,101014.78
